sensor_id;sensor_type;location;lat;lon;timestamp;P1;durP1;ratioP1;P2;durP2;ratioP2
3022;SDS011;1521;53.584;9.938;2023-07-20T00:00:48;5.57;;;3.40;;
3022;SDS011;1521;53.584;9.938;2023-07-20T00:03:15;4.00;;;3.53;;
3022;SDS011;1521;53.584;9.938;2023-07-20T00:05:44;3.40;;;3.00;;
3022;SDS011;1521;53.584;9.938;2023-07-20T00:08:10;3.80;;;3.50;;
3022;SDS011;1521;53.584;9.938;2023-07-20T00:10:36;5.10;;;3.67;;
3022;SDS011;1521;53.584;9.938;2023-07-20T00:13:02;3.47;;;3.17;;
3022;SDS011;1521;53.584;9.938;2023-07-20T00:15:27;13.70;;;3.47;;
3022;SDS011;1521;53.584;9.938;2023-07-20T00:17:53;3.50;;;2.90;;
3022;SDS011;1521;53.584;9.938;2023-07-20T00:20:19;4.60;;;3.33;;
3022;SDS011;1521;53.584;9.938;2023-07-20T00:22:44;4.40;;;3.30;;
3022;SDS011;1521;53.584;9.938;2023-07-20T00:25:10;3.37;;;3.00;;
3022;SDS011;1521;53.584;9.938;2023-07-20T00:27:39;3.70;;;3.13;;
3022;SDS011;1521;53.584;9.938;2023-07-20T00:30:04;4.80;;;3.10;;
3022;SDS011;1521;53.584;9.938;2023-07-20T00:32:30;3.03;;;2.83;;
3022;SDS011;1521;53.584;9.938;2023-07-20T00:34:56;6.23;;;2.80;;
3022;SDS011;1521;53.584;9.938;2023-07-20T00:37:21;3.60;;;2.90;;
3022;SDS011;1521;53.584;9.938;2023-07-20T00:39:47;8.80;;;3.10;;
3022;SDS011;1521;53.584;9.938;2023-07-20T00:42:13;3.57;;;3.27;;
3022;SDS011;1521;53.584;9.938;2023-07-20T00:44:38;4.87;;;3.30;;
3022;SDS011;1521;53.584;9.938;2023-07-20T00:47:04;4.20;;;3.20;;
3022;SDS011;1521;53.584;9.938;2023-07-20T00:49:31;6.23;;;3.60;;
3022;SDS011;1521;53.584;9.938;2023-07-20T00:51:57;6.70;;;4.30;;
3022;SDS011;1521;53.584;9.938;2023-07-20T00:54:24;5.80;;;3.97;;
3022;SDS011;1521;53.584;9.938;2023-07-20T00:56:50;4.83;;;4.27;;
3022;SDS011;1521;53.584;9.938;2023-07-20T00:59:18;8.73;;;4.40;;
3022;SDS011;1521;53.584;9.938;2023-07-20T01:01:43;6.30;;;4.20;;
3022;SDS011;1521;53.584;9.938;2023-07-20T01:04:09;9.53;;;3.87;;
3022;SDS011;1521;53.584;9.938;2023-07-20T01:14:43;6.83;;;4.97;;
3022;SDS011;1521;53.584;9.938;2023-07-20T01:17:10;5.37;;;4.30;;
3022;SDS011;1521;53.584;9.938;2023-07-20T01:19:35;8.20;;;5.10;;
3022;SDS011;1521;53.584;9.938;2023-07-20T01:33:17;7.63;;;5.13;;
3022;SDS011;1521;53.584;9.938;2023-07-20T01:35:44;7.27;;;5.50;;
3022;SDS011;1521;53.584;9.938;2023-07-20T01:38:13;8.53;;;5.50;;
3022;SDS011;1521;53.584;9.938;2023-07-20T01:40:39;5.40;;;4.90;;
3022;SDS011;1521;53.584;9.938;2023-07-20T01:43:05;7.77;;;4.67;;
3022;SDS011;1521;53.584;9.938;2023-07-20T01:45:31;7.53;;;4.80;;
3022;SDS011;1521;53.584;9.938;2023-07-20T01:47:56;8.03;;;5.40;;
3022;SDS011;1521;53.584;9.938;2023-07-20T01:50:22;6.63;;;5.60;;
3022;SDS011;1521;53.584;9.938;2023-07-20T01:52:48;9.20;;;6.23;;
3022;SDS011;1521;53.584;9.938;2023-07-20T01:55:13;6.17;;;5.53;;
3022;SDS011;1521;53.584;9.938;2023-07-20T01:57:39;6.37;;;5.20;;
3022;SDS011;1521;53.584;9.938;2023-07-20T02:00:05;6.53;;;5.60;;
3022;SDS011;1521;53.584;9.938;2023-07-20T02:02:33;8.10;;;5.50;;
3022;SDS011;1521;53.584;9.938;2023-07-20T02:04:59;7.47;;;5.70;;
3022;SDS011;1521;53.584;9.938;2023-07-20T02:07:24;6.97;;;5.73;;
3022;SDS011;1521;53.584;9.938;2023-07-20T02:09:50;8.43;;;6.07;;
3022;SDS011;1521;53.584;9.938;2023-07-20T02:12:16;8.00;;;6.80;;
3022;SDS011;1521;53.584;9.938;2023-07-20T02:14:42;6.13;;;5.00;;
3022;SDS011;1521;53.584;9.938;2023-07-20T02:17:07;5.67;;;4.90;;
3022;SDS011;1521;53.584;9.938;2023-07-20T02:19:35;5.20;;;4.80;;
3022;SDS011;1521;53.584;9.938;2023-07-20T02:22:02;4.23;;;3.83;;
3022;SDS011;1521;53.584;9.938;2023-07-20T02:24:27;5.97;;;4.63;;
3022;SDS011;1521;53.584;9.938;2023-07-20T02:26:53;4.40;;;4.00;;
3022;SDS011;1521;53.584;9.938;2023-07-20T02:29:18;4.80;;;4.30;;
3022;SDS011;1521;53.584;9.938;2023-07-20T02:31:44;4.90;;;4.50;;
3022;SDS011;1521;53.584;9.938;2023-07-20T02:34:10;4.50;;;4.10;;
3022;SDS011;1521;53.584;9.938;2023-07-20T02:36:35;6.63;;;4.57;;
3022;SDS011;1521;53.584;9.938;2023-07-20T02:39:01;4.23;;;3.83;;
3022;SDS011;1521;53.584;9.938;2023-07-20T02:41:29;4.73;;;4.33;;
3022;SDS011;1521;53.584;9.938;2023-07-20T02:43:58;4.73;;;4.00;;
3022;SDS011;1521;53.584;9.938;2023-07-20T02:46:23;6.87;;;5.13;;
3022;SDS011;1521;53.584;9.938;2023-07-20T02:48:49;5.80;;;4.87;;
3022;SDS011;1521;53.584;9.938;2023-07-20T02:51:14;5.70;;;5.00;;
3022;SDS011;1521;53.584;9.938;2023-07-20T02:53:40;5.77;;;5.27;;
3022;SDS011;1521;53.584;9.938;2023-07-20T02:56:06;4.77;;;4.37;;
3022;SDS011;1521;53.584;9.938;2023-07-20T02:58:33;5.23;;;4.73;;
3022;SDS011;1521;53.584;9.938;2023-07-20T03:01:02;5.63;;;5.07;;
3022;SDS011;1521;53.584;9.938;2023-07-20T03:03:28;5.10;;;4.60;;
3022;SDS011;1521;53.584;9.938;2023-07-20T03:05:53;6.50;;;5.27;;
3022;SDS011;1521;53.584;9.938;2023-07-20T03:08:20;7.50;;;4.80;;
3022;SDS011;1521;53.584;9.938;2023-07-20T03:10:46;4.83;;;4.40;;
3022;SDS011;1521;53.584;9.938;2023-07-20T03:13:12;6.57;;;4.63;;
3022;SDS011;1521;53.584;9.938;2023-07-20T03:15:39;5.83;;;5.00;;
3022;SDS011;1521;53.584;9.938;2023-07-20T03:18:04;5.90;;;5.23;;
3022;SDS011;1521;53.584;9.938;2023-07-20T03:20:30;6.10;;;4.57;;
3022;SDS011;1521;53.584;9.938;2023-07-20T03:22:56;6.17;;;5.10;;
3022;SDS011;1521;53.584;9.938;2023-07-20T03:25:22;5.00;;;4.50;;
3022;SDS011;1521;53.584;9.938;2023-07-20T03:27:47;5.30;;;4.80;;
3022;SDS011;1521;53.584;9.938;2023-07-20T03:30:13;5.77;;;5.10;;
3022;SDS011;1521;53.584;9.938;2023-07-20T03:32:39;4.67;;;4.13;;
3022;SDS011;1521;53.584;9.938;2023-07-20T03:35:05;4.20;;;3.80;;
3022;SDS011;1521;53.584;9.938;2023-07-20T03:37:31;5.93;;;3.93;;
3022;SDS011;1521;53.584;9.938;2023-07-20T03:39:57;5.23;;;4.60;;
3022;SDS011;1521;53.584;9.938;2023-07-20T03:42:22;4.67;;;4.17;;
3022;SDS011;1521;53.584;9.938;2023-07-20T03:44:48;5.00;;;4.50;;
3022;SDS011;1521;53.584;9.938;2023-07-20T03:47:13;8.17;;;5.67;;
3022;SDS011;1521;53.584;9.938;2023-07-20T03:49:39;7.37;;;5.20;;
3022;SDS011;1521;53.584;9.938;2023-07-20T03:52:05;5.67;;;5.17;;
3022;SDS011;1521;53.584;9.938;2023-07-20T03:54:31;6.37;;;5.77;;
3022;SDS011;1521;53.584;9.938;2023-07-20T03:56:56;5.90;;;5.30;;
3022;SDS011;1521;53.584;9.938;2023-07-20T03:59:22;8.33;;;5.73;;
3022;SDS011;1521;53.584;9.938;2023-07-20T04:01:47;10.13;;;6.27;;
3022;SDS011;1521;53.584;9.938;2023-07-20T04:04:15;7.70;;;5.70;;
3022;SDS011;1521;53.584;9.938;2023-07-20T04:06:41;5.93;;;5.33;;
3022;SDS011;1521;53.584;9.938;2023-07-20T04:09:09;10.00;;;6.17;;
3022;SDS011;1521;53.584;9.938;2023-07-20T04:11:36;8.80;;;6.20;;
3022;SDS011;1521;53.584;9.938;2023-07-20T04:14:01;6.53;;;5.60;;
3022;SDS011;1521;53.584;9.938;2023-07-20T04:16:27;7.57;;;5.90;;
3022;SDS011;1521;53.584;9.938;2023-07-20T04:18:54;6.30;;;5.67;;
3022;SDS011;1521;53.584;9.938;2023-07-20T04:21:21;5.57;;;5.07;;
3022;SDS011;1521;53.584;9.938;2023-07-20T04:23:47;7.63;;;5.43;;
3022;SDS011;1521;53.584;9.938;2023-07-20T04:26:12;6.43;;;5.33;;
3022;SDS011;1521;53.584;9.938;2023-07-20T04:28:39;5.87;;;5.37;;
3022;SDS011;1521;53.584;9.938;2023-07-20T04:31:13;8.67;;;4.90;;
3022;SDS011;1521;53.584;9.938;2023-07-20T04:33:40;7.30;;;4.80;;
3022;SDS011;1521;53.584;9.938;2023-07-20T04:36:06;4.93;;;4.53;;
3022;SDS011;1521;53.584;9.938;2023-07-20T04:38:33;4.93;;;4.53;;
3022;SDS011;1521;53.584;9.938;2023-07-20T04:40:58;4.50;;;3.73;;
3022;SDS011;1521;53.584;9.938;2023-07-20T04:43:24;4.10;;;3.60;;
3022;SDS011;1521;53.584;9.938;2023-07-20T04:45:50;4.33;;;3.77;;
3022;SDS011;1521;53.584;9.938;2023-07-20T04:48:16;5.27;;;3.67;;
3022;SDS011;1521;53.584;9.938;2023-07-20T04:50:43;3.60;;;3.30;;
3022;SDS011;1521;53.584;9.938;2023-07-20T04:53:10;4.47;;;3.50;;
3022;SDS011;1521;53.584;9.938;2023-07-20T04:55:37;4.37;;;3.63;;
3022;SDS011;1521;53.584;9.938;2023-07-20T04:58:04;5.47;;;3.43;;
3022;SDS011;1521;53.584;9.938;2023-07-20T05:00:30;4.80;;;3.57;;
3022;SDS011;1521;53.584;9.938;2023-07-20T05:02:57;7.53;;;3.70;;
3022;SDS011;1521;53.584;9.938;2023-07-20T05:05:22;4.70;;;4.30;;
3022;SDS011;1521;53.584;9.938;2023-07-20T05:07:48;9.67;;;3.80;;
3022;SDS011;1521;53.584;9.938;2023-07-20T05:10:14;4.17;;;3.77;;
3022;SDS011;1521;53.584;9.938;2023-07-20T05:12:39;4.70;;;4.17;;
3022;SDS011;1521;53.584;9.938;2023-07-20T05:15:05;5.63;;;4.10;;
3022;SDS011;1521;53.584;9.938;2023-07-20T05:17:31;4.93;;;4.50;;
3022;SDS011;1521;53.584;9.938;2023-07-20T05:19:56;4.10;;;3.80;;
3022;SDS011;1521;53.584;9.938;2023-07-20T05:22:22;4.50;;;4.10;;
3022;SDS011;1521;53.584;9.938;2023-07-20T05:24:49;5.33;;;4.80;;
3022;SDS011;1521;53.584;9.938;2023-07-20T05:27:15;5.77;;;4.43;;
3022;SDS011;1521;53.584;9.938;2023-07-20T05:29:47;7.93;;;4.33;;
3022;SDS011;1521;53.584;9.938;2023-07-20T05:32:12;6.97;;;5.00;;
3022;SDS011;1521;53.584;9.938;2023-07-20T05:34:38;7.20;;;5.00;;
3022;SDS011;1521;53.584;9.938;2023-07-20T05:37:04;5.60;;;4.13;;
3022;SDS011;1521;53.584;9.938;2023-07-20T05:39:31;4.43;;;4.10;;
3022;SDS011;1521;53.584;9.938;2023-07-20T05:41:57;4.50;;;3.60;;
3022;SDS011;1521;53.584;9.938;2023-07-20T05:44:23;4.70;;;3.87;;
3022;SDS011;1521;53.584;9.938;2023-07-20T05:46:49;4.03;;;3.63;;
3022;SDS011;1521;53.584;9.938;2023-07-20T05:49:14;8.70;;;4.23;;
3022;SDS011;1521;53.584;9.938;2023-07-20T05:51:40;5.10;;;4.60;;
3022;SDS011;1521;53.584;9.938;2023-07-20T05:54:05;5.40;;;4.47;;
3022;SDS011;1521;53.584;9.938;2023-07-20T05:56:31;6.20;;;4.27;;
3022;SDS011;1521;53.584;9.938;2023-07-20T05:58:57;5.87;;;4.70;;
3022;SDS011;1521;53.584;9.938;2023-07-20T06:01:22;5.40;;;4.60;;
3022;SDS011;1521;53.584;9.938;2023-07-20T06:03:48;5.50;;;4.30;;
3022;SDS011;1521;53.584;9.938;2023-07-20T06:06:13;5.60;;;4.20;;
3022;SDS011;1521;53.584;9.938;2023-07-20T06:08:40;2.90;;;2.40;;
3022;SDS011;1521;53.584;9.938;2023-07-20T06:11:05;5.80;;;2.53;;
3022;SDS011;1521;53.584;9.938;2023-07-20T06:13:31;5.33;;;2.77;;
3022;SDS011;1521;53.584;9.938;2023-07-20T06:15:56;4.17;;;2.23;;
3022;SDS011;1521;53.584;9.938;2023-07-20T06:18:22;4.57;;;2.40;;
3022;SDS011;1521;53.584;9.938;2023-07-20T06:20:51;4.27;;;2.00;;
3022;SDS011;1521;53.584;9.938;2023-07-20T06:23:18;3.30;;;1.70;;
3022;SDS011;1521;53.584;9.938;2023-07-20T06:25:44;5.53;;;1.93;;
3022;SDS011;1521;53.584;9.938;2023-07-20T06:28:10;4.97;;;2.23;;
3022;SDS011;1521;53.584;9.938;2023-07-20T06:30:36;3.53;;;1.77;;
3022;SDS011;1521;53.584;9.938;2023-07-20T06:33:02;2.27;;;2.07;;
3022;SDS011;1521;53.584;9.938;2023-07-20T06:35:27;4.33;;;1.70;;
3022;SDS011;1521;53.584;9.938;2023-07-20T06:37:53;3.23;;;1.80;;
3022;SDS011;1521;53.584;9.938;2023-07-20T06:40:18;3.83;;;1.87;;
3022;SDS011;1521;53.584;9.938;2023-07-20T06:42:44;6.13;;;2.20;;
3022;SDS011;1521;53.584;9.938;2023-07-20T06:45:10;3.30;;;2.10;;
3022;SDS011;1521;53.584;9.938;2023-07-20T06:47:38;6.07;;;2.00;;
3022;SDS011;1521;53.584;9.938;2023-07-20T06:50:05;3.23;;;1.80;;
3022;SDS011;1521;53.584;9.938;2023-07-20T06:52:34;2.80;;;1.60;;
3022;SDS011;1521;53.584;9.938;2023-07-20T06:55:00;2.93;;;1.50;;
3022;SDS011;1521;53.584;9.938;2023-07-20T06:57:25;4.90;;;1.80;;
3022;SDS011;1521;53.584;9.938;2023-07-20T06:59:51;1.63;;;1.53;;
3022;SDS011;1521;53.584;9.938;2023-07-20T07:02:18;4.03;;;1.90;;
3022;SDS011;1521;53.584;9.938;2023-07-20T07:04:43;6.50;;;1.53;;
3022;SDS011;1521;53.584;9.938;2023-07-20T07:07:10;3.00;;;1.70;;
3022;SDS011;1521;53.584;9.938;2023-07-20T07:09:36;3.10;;;1.50;;
3022;SDS011;1521;53.584;9.938;2023-07-20T07:12:01;3.93;;;1.80;;
3022;SDS011;1521;53.584;9.938;2023-07-20T07:14:27;7.73;;;1.53;;
3022;SDS011;1521;53.584;9.938;2023-07-20T07:16:52;3.67;;;1.83;;
3022;SDS011;1521;53.584;9.938;2023-07-20T07:19:18;3.87;;;1.60;;
3022;SDS011;1521;53.584;9.938;2023-07-20T07:21:44;7.20;;;2.10;;
3022;SDS011;1521;53.584;9.938;2023-07-20T07:24:09;4.83;;;1.67;;
3022;SDS011;1521;53.584;9.938;2023-07-20T07:26:36;4.50;;;1.83;;
3022;SDS011;1521;53.584;9.938;2023-07-20T07:29:02;6.63;;;2.10;;
3022;SDS011;1521;53.584;9.938;2023-07-20T07:31:28;3.50;;;1.57;;
3022;SDS011;1521;53.584;9.938;2023-07-20T07:33:56;3.53;;;1.80;;
3022;SDS011;1521;53.584;9.938;2023-07-20T07:36:22;7.77;;;2.20;;
3022;SDS011;1521;53.584;9.938;2023-07-20T07:38:49;4.70;;;1.80;;
3022;SDS011;1521;53.584;9.938;2023-07-20T07:41:15;5.90;;;1.80;;
3022;SDS011;1521;53.584;9.938;2023-07-20T07:43:41;3.73;;;2.10;;
3022;SDS011;1521;53.584;9.938;2023-07-20T07:46:06;2.53;;;2.07;;
3022;SDS011;1521;53.584;9.938;2023-07-20T07:48:32;4.60;;;2.10;;
3022;SDS011;1521;53.584;9.938;2023-07-20T07:50:57;5.80;;;1.87;;
3022;SDS011;1521;53.584;9.938;2023-07-20T07:53:23;3.90;;;2.00;;
3022;SDS011;1521;53.584;9.938;2023-07-20T07:55:51;6.03;;;2.10;;
3022;SDS011;1521;53.584;9.938;2023-07-20T07:58:17;6.43;;;2.33;;
3022;SDS011;1521;53.584;9.938;2023-07-20T08:00:42;5.57;;;2.10;;
3022;SDS011;1521;53.584;9.938;2023-07-20T08:03:09;6.50;;;3.10;;
3022;SDS011;1521;53.584;9.938;2023-07-20T08:05:35;3.03;;;2.73;;
3022;SDS011;1521;53.584;9.938;2023-07-20T08:08:03;4.07;;;2.47;;
3022;SDS011;1521;53.584;9.938;2023-07-20T08:10:29;10.00;;;2.63;;
3022;SDS011;1521;53.584;9.938;2023-07-20T08:12:55;6.00;;;2.80;;
3022;SDS011;1521;53.584;9.938;2023-07-20T08:15:21;7.93;;;2.40;;
3022;SDS011;1521;53.584;9.938;2023-07-20T08:17:47;3.30;;;2.43;;
3022;SDS011;1521;53.584;9.938;2023-07-20T08:20:14;7.00;;;2.57;;
3022;SDS011;1521;53.584;9.938;2023-07-20T08:22:42;6.77;;;2.63;;
3022;SDS011;1521;53.584;9.938;2023-07-20T08:25:08;6.53;;;3.00;;
3022;SDS011;1521;53.584;9.938;2023-07-20T08:27:34;7.80;;;2.47;;
3022;SDS011;1521;53.584;9.938;2023-07-20T08:30:00;4.47;;;2.30;;
3022;SDS011;1521;53.584;9.938;2023-07-20T08:32:26;5.63;;;2.23;;
3022;SDS011;1521;53.584;9.938;2023-07-20T08:34:51;13.30;;;3.47;;
3022;SDS011;1521;53.584;9.938;2023-07-20T08:37:17;6.67;;;2.27;;
3022;SDS011;1521;53.584;9.938;2023-07-20T08:39:43;6.90;;;2.47;;
3022;SDS011;1521;53.584;9.938;2023-07-20T08:42:09;6.70;;;2.70;;
3022;SDS011;1521;53.584;9.938;2023-07-20T08:44:35;10.63;;;2.87;;
3022;SDS011;1521;53.584;9.938;2023-07-20T08:47:03;8.47;;;2.87;;
3022;SDS011;1521;53.584;9.938;2023-07-20T08:49:33;7.27;;;2.93;;
3022;SDS011;1521;53.584;9.938;2023-07-20T08:51:59;15.20;;;3.53;;
3022;SDS011;1521;53.584;9.938;2023-07-20T08:54:27;8.97;;;3.20;;
3022;SDS011;1521;53.584;9.938;2023-07-20T08:56:57;8.67;;;3.30;;
3022;SDS011;1521;53.584;9.938;2023-07-20T08:59:26;10.50;;;3.40;;
3022;SDS011;1521;53.584;9.938;2023-07-20T09:01:53;7.10;;;2.77;;
3022;SDS011;1521;53.584;9.938;2023-07-20T09:04:20;4.57;;;3.10;;
3022;SDS011;1521;53.584;9.938;2023-07-20T09:06:47;6.50;;;2.20;;
3022;SDS011;1521;53.584;9.938;2023-07-20T09:09:14;6.90;;;2.60;;
3022;SDS011;1521;53.584;9.938;2023-07-20T09:11:40;12.70;;;2.60;;
3022;SDS011;1521;53.584;9.938;2023-07-20T09:14:06;6.20;;;2.73;;
3022;SDS011;1521;53.584;9.938;2023-07-20T09:16:46;9.20;;;2.17;;
3022;SDS011;1521;53.584;9.938;2023-07-20T09:19:17;5.93;;;2.07;;
3022;SDS011;1521;53.584;9.938;2023-07-20T09:21:49;4.40;;;1.90;;
3022;SDS011;1521;53.584;9.938;2023-07-20T09:24:17;5.47;;;2.17;;
3022;SDS011;1521;53.584;9.938;2023-07-20T09:26:44;9.10;;;1.90;;
3022;SDS011;1521;53.584;9.938;2023-07-20T09:29:13;5.27;;;1.70;;
3022;SDS011;1521;53.584;9.938;2023-07-20T09:31:39;7.43;;;1.93;;
3022;SDS011;1521;53.584;9.938;2023-07-20T09:34:05;5.60;;;1.60;;
3022;SDS011;1521;53.584;9.938;2023-07-20T09:36:35;3.90;;;1.67;;
3022;SDS011;1521;53.584;9.938;2023-07-20T09:39:02;3.93;;;1.40;;
3022;SDS011;1521;53.584;9.938;2023-07-20T09:41:29;4.20;;;1.63;;
3022;SDS011;1521;53.584;9.938;2023-07-20T09:43:55;3.67;;;1.60;;
3022;SDS011;1521;53.584;9.938;2023-07-20T09:46:21;4.17;;;1.47;;
3022;SDS011;1521;53.584;9.938;2023-07-20T09:48:53;1.87;;;1.10;;
3022;SDS011;1521;53.584;9.938;2023-07-20T09:51:21;2.30;;;1.00;;
3022;SDS011;1521;53.584;9.938;2023-07-20T09:53:48;5.23;;;1.37;;
3022;SDS011;1521;53.584;9.938;2023-07-20T09:56:14;2.60;;;1.00;;
3022;SDS011;1521;53.584;9.938;2023-07-20T09:58:43;2.30;;;1.23;;
3022;SDS011;1521;53.584;9.938;2023-07-20T10:01:10;5.63;;;1.57;;
3022;SDS011;1521;53.584;9.938;2023-07-20T10:03:39;4.40;;;1.60;;
3022;SDS011;1521;53.584;9.938;2023-07-20T10:06:09;5.90;;;1.40;;
3022;SDS011;1521;53.584;9.938;2023-07-20T10:08:41;2.60;;;1.33;;
3022;SDS011;1521;53.584;9.938;2023-07-20T10:11:08;4.33;;;1.23;;
3022;SDS011;1521;53.584;9.938;2023-07-20T10:13:36;3.73;;;1.60;;
3022;SDS011;1521;53.584;9.938;2023-07-20T10:16:07;2.80;;;1.30;;
3022;SDS011;1521;53.584;9.938;2023-07-20T10:21:19;7.23;;;1.50;;
3022;SDS011;1521;53.584;9.938;2023-07-20T10:23:47;6.23;;;1.30;;
3022;SDS011;1521;53.584;9.938;2023-07-20T10:26:14;4.10;;;1.37;;
3022;SDS011;1521;53.584;9.938;2023-07-20T10:28:40;2.37;;;1.30;;
3022;SDS011;1521;53.584;9.938;2023-07-20T10:31:09;4.93;;;1.27;;
3022;SDS011;1521;53.584;9.938;2023-07-20T10:33:37;4.13;;;1.40;;
3022;SDS011;1521;53.584;9.938;2023-07-20T10:36:04;2.40;;;1.23;;
3022;SDS011;1521;53.584;9.938;2023-07-20T10:38:52;4.33;;;1.20;;
3022;SDS011;1521;53.584;9.938;2023-07-20T10:41:20;3.53;;;1.30;;
3022;SDS011;1521;53.584;9.938;2023-07-20T10:43:46;3.97;;;1.63;;
3022;SDS011;1521;53.584;9.938;2023-07-20T10:46:12;2.53;;;1.10;;
3022;SDS011;1521;53.584;9.938;2023-07-20T10:51:27;1.73;;;1.10;;
3022;SDS011;1521;53.584;9.938;2023-07-20T10:53:56;2.63;;;1.40;;
3022;SDS011;1521;53.584;9.938;2023-07-20T10:56:25;5.10;;;1.30;;
3022;SDS011;1521;53.584;9.938;2023-07-20T10:58:56;2.53;;;1.27;;
3022;SDS011;1521;53.584;9.938;2023-07-20T11:01:27;4.00;;;1.20;;
3022;SDS011;1521;53.584;9.938;2023-07-20T11:03:57;2.70;;;1.00;;
3022;SDS011;1521;53.584;9.938;2023-07-20T11:08:55;3.47;;;1.00;;
3022;SDS011;1521;53.584;9.938;2023-07-20T11:11:29;3.13;;;0.90;;
3022;SDS011;1521;53.584;9.938;2023-07-20T11:13:56;2.10;;;1.30;;
3022;SDS011;1521;53.584;9.938;2023-07-20T11:16:39;3.07;;;1.00;;
3022;SDS011;1521;53.584;9.938;2023-07-20T11:19:13;12.33;;;1.00;;
3022;SDS011;1521;53.584;9.938;2023-07-20T11:21:42;2.40;;;0.80;;
3022;SDS011;1521;53.584;9.938;2023-07-20T11:24:09;3.37;;;1.10;;
3022;SDS011;1521;53.584;9.938;2023-07-20T11:26:40;2.50;;;1.00;;
3022;SDS011;1521;53.584;9.938;2023-07-20T11:29:06;2.50;;;1.00;;
3022;SDS011;1521;53.584;9.938;2023-07-20T11:31:34;2.93;;;1.10;;
3022;SDS011;1521;53.584;9.938;2023-07-20T11:34:02;1.80;;;0.97;;
3022;SDS011;1521;53.584;9.938;2023-07-20T11:36:27;2.07;;;1.10;;
3022;SDS011;1521;53.584;9.938;2023-07-20T11:38:53;2.30;;;0.90;;
3022;SDS011;1521;53.584;9.938;2023-07-20T11:41:19;5.50;;;1.00;;
3022;SDS011;1521;53.584;9.938;2023-07-20T11:43:45;4.30;;;1.17;;
3022;SDS011;1521;53.584;9.938;2023-07-20T11:46:11;2.87;;;0.90;;
3022;SDS011;1521;53.584;9.938;2023-07-20T11:48:36;2.20;;;0.93;;
3022;SDS011;1521;53.584;9.938;2023-07-20T11:51:02;2.80;;;1.00;;
3022;SDS011;1521;53.584;9.938;2023-07-20T11:53:28;2.70;;;1.20;;
3022;SDS011;1521;53.584;9.938;2023-07-20T11:55:54;4.50;;;1.00;;
3022;SDS011;1521;53.584;9.938;2023-07-20T11:58:20;3.73;;;1.07;;
3022;SDS011;1521;53.584;9.938;2023-07-20T12:00:46;3.20;;;1.00;;
3022;SDS011;1521;53.584;9.938;2023-07-20T12:03:12;2.60;;;0.90;;
3022;SDS011;1521;53.584;9.938;2023-07-20T12:05:38;2.70;;;1.00;;
3022;SDS011;1521;53.584;9.938;2023-07-20T12:08:04;5.63;;;1.10;;
3022;SDS011;1521;53.584;9.938;2023-07-20T12:10:30;3.80;;;1.30;;
3022;SDS011;1521;53.584;9.938;2023-07-20T12:13:02;2.67;;;1.03;;
3022;SDS011;1521;53.584;9.938;2023-07-20T12:15:28;2.80;;;1.20;;
3022;SDS011;1521;53.584;9.938;2023-07-20T12:17:58;3.47;;;0.98;;
3022;SDS011;1521;53.584;9.938;2023-07-20T12:20:32;1.90;;;1.00;;
3022;SDS011;1521;53.584;9.938;2023-07-20T12:23:01;6.10;;;1.50;;
3022;SDS011;1521;53.584;9.938;2023-07-20T12:25:37;3.07;;;1.00;;
3022;SDS011;1521;53.584;9.938;2023-07-20T12:28:08;3.60;;;1.20;;
3022;SDS011;1521;53.584;9.938;2023-07-20T12:30:36;5.67;;;1.80;;
3022;SDS011;1521;53.584;9.938;2023-07-20T12:33:02;3.37;;;1.07;;
3022;SDS011;1521;53.584;9.938;2023-07-20T12:35:29;2.83;;;1.10;;
3022;SDS011;1521;53.584;9.938;2023-07-20T12:37:55;3.30;;;1.30;;
3022;SDS011;1521;53.584;9.938;2023-07-20T12:40:21;7.30;;;1.60;;
3022;SDS011;1521;53.584;9.938;2023-07-20T12:42:47;4.40;;;1.40;;
3022;SDS011;1521;53.584;9.938;2023-07-20T12:45:13;5.67;;;1.33;;
3022;SDS011;1521;53.584;9.938;2023-07-20T12:47:39;5.00;;;1.40;;
3022;SDS011;1521;53.584;9.938;2023-07-20T12:50:06;2.13;;;0.90;;
3022;SDS011;1521;53.584;9.938;2023-07-20T12:52:35;4.07;;;1.10;;
3022;SDS011;1521;53.584;9.938;2023-07-20T12:55:02;5.23;;;1.47;;
3022;SDS011;1521;53.584;9.938;2023-07-20T12:57:28;1.73;;;1.00;;
3022;SDS011;1521;53.584;9.938;2023-07-20T12:59:54;1.30;;;0.80;;
3022;SDS011;1521;53.584;9.938;2023-07-20T13:02:20;4.00;;;1.10;;
3022;SDS011;1521;53.584;9.938;2023-07-20T13:04:45;3.47;;;1.00;;
3022;SDS011;1521;53.584;9.938;2023-07-20T13:07:11;2.07;;;0.90;;
3022;SDS011;1521;53.584;9.938;2023-07-20T13:09:39;2.30;;;0.87;;
3022;SDS011;1521;53.584;9.938;2023-07-20T13:12:05;1.73;;;0.93;;
3022;SDS011;1521;53.584;9.938;2023-07-20T13:14:30;1.97;;;0.90;;
3022;SDS011;1521;53.584;9.938;2023-07-20T13:16:57;2.70;;;0.73;;
3022;SDS011;1521;53.584;9.938;2023-07-20T13:19:22;3.10;;;1.20;;
3022;SDS011;1521;53.584;9.938;2023-07-20T13:21:48;2.50;;;1.07;;
3022;SDS011;1521;53.584;9.938;2023-07-20T13:24:13;7.63;;;1.20;;
3022;SDS011;1521;53.584;9.938;2023-07-20T13:26:39;1.97;;;1.07;;
3022;SDS011;1521;53.584;9.938;2023-07-20T13:29:05;3.97;;;1.10;;
3022;SDS011;1521;53.584;9.938;2023-07-20T13:31:30;6.77;;;1.00;;
3022;SDS011;1521;53.584;9.938;2023-07-20T13:33:56;1.97;;;0.97;;
3022;SDS011;1521;53.584;9.938;2023-07-20T13:36:23;3.50;;;0.90;;
3022;SDS011;1521;53.584;9.938;2023-07-20T13:38:49;6.87;;;1.47;;
3022;SDS011;1521;53.584;9.938;2023-07-20T13:41:14;3.20;;;1.00;;
3022;SDS011;1521;53.584;9.938;2023-07-20T13:43:41;3.10;;;0.87;;
3022;SDS011;1521;53.584;9.938;2023-07-20T13:46:07;1.20;;;0.97;;
3022;SDS011;1521;53.584;9.938;2023-07-20T13:48:32;4.20;;;1.73;;
3022;SDS011;1521;53.584;9.938;2023-07-20T13:50:58;3.83;;;1.33;;
3022;SDS011;1521;53.584;9.938;2023-07-20T13:53:24;2.40;;;1.00;;
3022;SDS011;1521;53.584;9.938;2023-07-20T13:55:49;2.40;;;1.10;;
3022;SDS011;1521;53.584;9.938;2023-07-20T13:58:15;1.97;;;0.80;;
3022;SDS011;1521;53.584;9.938;2023-07-20T14:00:41;3.80;;;0.90;;
3022;SDS011;1521;53.584;9.938;2023-07-20T14:03:06;1.97;;;1.00;;
3022;SDS011;1521;53.584;9.938;2023-07-20T14:05:33;5.13;;;1.20;;
3022;SDS011;1521;53.584;9.938;2023-07-20T14:07:58;3.33;;;1.00;;
3022;SDS011;1521;53.584;9.938;2023-07-20T14:10:24;2.80;;;1.00;;
3022;SDS011;1521;53.584;9.938;2023-07-20T14:12:50;1.40;;;0.90;;
3022;SDS011;1521;53.584;9.938;2023-07-20T14:15:15;3.17;;;1.00;;
3022;SDS011;1521;53.584;9.938;2023-07-20T14:17:42;3.77;;;1.60;;
3022;SDS011;1521;53.584;9.938;2023-07-20T14:20:08;2.43;;;1.00;;
3022;SDS011;1521;53.584;9.938;2023-07-20T14:22:34;1.57;;;1.00;;
3022;SDS011;1521;53.584;9.938;2023-07-20T14:25:00;2.40;;;0.90;;
3022;SDS011;1521;53.584;9.938;2023-07-20T14:27:25;2.40;;;1.00;;
3022;SDS011;1521;53.584;9.938;2023-07-20T14:29:51;1.73;;;1.10;;
3022;SDS011;1521;53.584;9.938;2023-07-20T14:32:18;2.90;;;1.10;;
3022;SDS011;1521;53.584;9.938;2023-07-20T14:34:43;3.00;;;1.00;;
3022;SDS011;1521;53.584;9.938;2023-07-20T14:37:09;4.10;;;0.90;;
3022;SDS011;1521;53.584;9.938;2023-07-20T14:39:35;1.80;;;0.90;;
3022;SDS011;1521;53.584;9.938;2023-07-20T14:42:01;2.73;;;1.13;;
3022;SDS011;1521;53.584;9.938;2023-07-20T14:44:28;1.57;;;0.93;;
3022;SDS011;1521;53.584;9.938;2023-07-20T14:46:54;2.73;;;1.10;;
3022;SDS011;1521;53.584;9.938;2023-07-20T14:49:20;4.70;;;2.00;;
3022;SDS011;1521;53.584;9.938;2023-07-20T14:51:46;3.00;;;1.40;;
3022;SDS011;1521;53.584;9.938;2023-07-20T14:54:12;5.27;;;1.40;;
3022;SDS011;1521;53.584;9.938;2023-07-20T14:56:38;3.30;;;1.30;;
3022;SDS011;1521;53.584;9.938;2023-07-20T14:59:05;5.37;;;1.37;;
3022;SDS011;1521;53.584;9.938;2023-07-20T15:01:31;2.67;;;1.27;;
3022;SDS011;1521;53.584;9.938;2023-07-20T15:03:57;3.47;;;1.37;;
3022;SDS011;1521;53.584;9.938;2023-07-20T15:06:22;5.10;;;1.03;;
3022;SDS011;1521;53.584;9.938;2023-07-20T15:08:48;4.37;;;1.30;;
3022;SDS011;1521;53.584;9.938;2023-07-20T15:11:14;6.10;;;1.40;;
3022;SDS011;1521;53.584;9.938;2023-07-20T15:13:39;4.00;;;1.40;;
3022;SDS011;1521;53.584;9.938;2023-07-20T15:16:07;3.00;;;1.20;;
3022;SDS011;1521;53.584;9.938;2023-07-20T15:18:34;3.40;;;1.20;;
3022;SDS011;1521;53.584;9.938;2023-07-20T15:21:00;2.83;;;1.07;;
3022;SDS011;1521;53.584;9.938;2023-07-20T15:23:25;1.70;;;1.00;;
3022;SDS011;1521;53.584;9.938;2023-07-20T15:25:51;2.50;;;1.47;;
3022;SDS011;1521;53.584;9.938;2023-07-20T15:28:16;5.83;;;1.40;;
3022;SDS011;1521;53.584;9.938;2023-07-20T15:30:42;4.17;;;1.50;;
3022;SDS011;1521;53.584;9.938;2023-07-20T15:33:08;4.70;;;1.73;;
3022;SDS011;1521;53.584;9.938;2023-07-20T15:35:33;2.70;;;1.00;;
3022;SDS011;1521;53.584;9.938;2023-07-20T15:37:59;3.80;;;1.27;;